sensor_id;sensor_type;location;lat;lon;timestamp;P1;durP1;ratioP1;P2;durP2;ratioP2
28176;SDS011;15461;41.652;9.378;2023-04-25T00:01:38;11.80;;;2.10;;
28176;SDS011;15461;41.652;9.378;2023-04-25T00:04:04;8.45;;;1.90;;
28176;SDS011;15461;41.652;9.378;2023-04-25T00:06:36;14.55;;;2.50;;
28176;SDS011;15461;41.652;9.378;2023-04-25T00:09:06;9.82;;;1.80;;
28176;SDS011;15461;41.652;9.378;2023-04-25T00:11:36;7.75;;;1.77;;
28176;SDS011;15461;41.652;9.378;2023-04-25T00:14:03;7.47;;;1.98;;
28176;SDS011;15461;41.652;9.378;2023-04-25T00:16:29;11.27;;;1.83;;
28176;SDS011;15461;41.652;9.378;2023-04-25T00:18:58;11.77;;;2.22;;
28176;SDS011;15461;41.652;9.378;2023-04-25T00:21:25;9.43;;;2.20;;
28176;SDS011;15461;41.652;9.378;2023-04-25T00:23:54;8.10;;;1.65;;
28176;SDS011;15461;41.652;9.378;2023-04-25T00:26:21;10.60;;;1.92;;
28176;SDS011;15461;41.652;9.378;2023-04-25T00:28:47;8.65;;;2.17;;
28176;SDS011;15461;41.652;9.378;2023-04-25T00:31:13;6.22;;;1.70;;
28176;SDS011;15461;41.652;9.378;2023-04-25T00:33:39;10.60;;;2.15;;
28176;SDS011;15461;41.652;9.378;2023-04-25T00:36:05;9.10;;;2.00;;
28176;SDS011;15461;41.652;9.378;2023-04-25T00:38:31;11.00;;;2.20;;
28176;SDS011;15461;41.652;9.378;2023-04-25T00:40:57;7.85;;;1.92;;
28176;SDS011;15461;41.652;9.378;2023-04-25T00:43:26;11.57;;;2.03;;
28176;SDS011;15461;41.652;9.378;2023-04-25T00:45:53;11.18;;;2.13;;
28176;SDS011;15461;41.652;9.378;2023-04-25T00:48:21;12.13;;;2.40;;
28176;SDS011;15461;41.652;9.378;2023-04-25T00:50:51;12.25;;;2.15;;
28176;SDS011;15461;41.652;9.378;2023-04-25T00:53:22;10.07;;;2.13;;
28176;SDS011;15461;41.652;9.378;2023-04-25T00:55:49;10.82;;;2.33;;
28176;SDS011;15461;41.652;9.378;2023-04-25T00:58:19;15.80;;;2.38;;
28176;SDS011;15461;41.652;9.378;2023-04-25T01:00:47;17.45;;;2.60;;
28176;SDS011;15461;41.652;9.378;2023-04-25T01:03:14;13.80;;;2.78;;
28176;SDS011;15461;41.652;9.378;2023-04-25T01:05:47;8.80;;;1.75;;
28176;SDS011;15461;41.652;9.378;2023-04-25T01:08:13;8.70;;;2.30;;
28176;SDS011;15461;41.652;9.378;2023-04-25T01:10:39;10.70;;;2.05;;
28176;SDS011;15461;41.652;9.378;2023-04-25T01:13:06;13.82;;;2.28;;
28176;SDS011;15461;41.652;9.378;2023-04-25T01:15:32;13.35;;;2.58;;
28176;SDS011;15461;41.652;9.378;2023-04-25T01:17:58;10.05;;;2.00;;
28176;SDS011;15461;41.652;9.378;2023-04-25T01:20:26;10.93;;;2.03;;
28176;SDS011;15461;41.652;9.378;2023-04-25T01:22:53;8.23;;;1.95;;
28176;SDS011;15461;41.652;9.378;2023-04-25T01:25:20;6.22;;;1.77;;
28176;SDS011;15461;41.652;9.378;2023-04-25T01:27:47;7.88;;;2.08;;
28176;SDS011;15461;41.652;9.378;2023-04-25T01:30:14;14.18;;;2.53;;
28176;SDS011;15461;41.652;9.378;2023-04-25T01:32:41;12.38;;;2.30;;
28176;SDS011;15461;41.652;9.378;2023-04-25T01:35:10;11.52;;;2.30;;
28176;SDS011;15461;41.652;9.378;2023-04-25T01:37:37;10.95;;;2.00;;
28176;SDS011;15461;41.652;9.378;2023-04-25T01:40:04;12.05;;;2.17;;
28176;SDS011;15461;41.652;9.378;2023-04-25T01:42:32;9.73;;;1.75;;
28176;SDS011;15461;41.652;9.378;2023-04-25T01:44:59;12.95;;;2.00;;
28176;SDS011;15461;41.652;9.378;2023-04-25T01:47:26;8.20;;;1.90;;
28176;SDS011;15461;41.652;9.378;2023-04-25T01:49:53;10.25;;;2.50;;
28176;SDS011;15461;41.652;9.378;2023-04-25T01:52:19;9.10;;;1.95;;
28176;SDS011;15461;41.652;9.378;2023-04-25T01:54:45;8.70;;;2.10;;
28176;SDS011;15461;41.652;9.378;2023-04-25T01:57:14;12.13;;;2.10;;
28176;SDS011;15461;41.652;9.378;2023-04-25T01:59:41;9.48;;;1.95;;
28176;SDS011;15461;41.652;9.378;2023-04-25T02:02:37;9.73;;;2.28;;
28176;SDS011;15461;41.652;9.378;2023-04-25T02:05:05;10.30;;;1.98;;
28176;SDS011;15461;41.652;9.378;2023-04-25T02:07:35;12.02;;;2.40;;
28176;SDS011;15461;41.652;9.378;2023-04-25T02:10:01;8.73;;;1.92;;
28176;SDS011;15461;41.652;9.378;2023-04-25T02:12:30;12.65;;;2.20;;
28176;SDS011;15461;41.652;9.378;2023-04-25T02:15:15;10.07;;;2.22;;
28176;SDS011;15461;41.652;9.378;2023-04-25T02:17:54;10.50;;;2.17;;
28176;SDS011;15461;41.652;9.378;2023-04-25T02:20:21;8.70;;;2.30;;
28176;SDS011;15461;41.652;9.378;2023-04-25T02:22:48;12.43;;;1.80;;
28176;SDS011;15461;41.652;9.378;2023-04-25T02:25:14;9.07;;;1.90;;
28176;SDS011;15461;41.652;9.378;2023-04-25T02:27:41;11.38;;;2.22;;
28176;SDS011;15461;41.652;9.378;2023-04-25T02:30:08;9.13;;;1.90;;
28176;SDS011;15461;41.652;9.378;2023-04-25T02:32:34;10.63;;;2.03;;
28176;SDS011;15461;41.652;9.378;2023-04-25T02:35:01;11.52;;;2.20;;
28176;SDS011;15461;41.652;9.378;2023-04-25T02:37:31;8.25;;;2.10;;
28176;SDS011;15461;41.652;9.378;2023-04-25T02:40:00;9.13;;;2.22;;
28176;SDS011;15461;41.652;9.378;2023-04-25T02:42:28;10.57;;;2.20;;
28176;SDS011;15461;41.652;9.378;2023-04-25T02:44:56;10.35;;;2.20;;
28176;SDS011;15461;41.652;9.378;2023-04-25T02:47:22;10.77;;;1.88;;
28176;SDS011;15461;41.652;9.378;2023-04-25T02:49:48;10.02;;;2.45;;
28176;SDS011;15461;41.652;9.378;2023-04-25T02:52:14;10.02;;;2.42;;
28176;SDS011;15461;41.652;9.378;2023-04-25T02:54:41;11.30;;;2.25;;
28176;SDS011;15461;41.652;9.378;2023-04-25T02:57:07;13.50;;;2.15;;
28176;SDS011;15461;41.652;9.378;2023-04-25T02:59:35;13.10;;;2.42;;
28176;SDS011;15461;41.652;9.378;2023-04-25T03:02:02;7.25;;;2.08;;
28176;SDS011;15461;41.652;9.378;2023-04-25T03:04:28;10.90;;;2.05;;
28176;SDS011;15461;41.652;9.378;2023-04-25T03:06:54;15.43;;;2.38;;
28176;SDS011;15461;41.652;9.378;2023-04-25T03:09:20;9.93;;;2.33;;
28176;SDS011;15461;41.652;9.378;2023-04-25T03:11:47;8.20;;;1.92;;
28176;SDS011;15461;41.652;9.378;2023-04-25T03:14:13;6.22;;;2.13;;
28176;SDS011;15461;41.652;9.378;2023-04-25T03:16:39;11.63;;;2.28;;
28176;SDS011;15461;41.652;9.378;2023-04-25T03:19:05;17.13;;;2.92;;
28176;SDS011;15461;41.652;9.378;2023-04-25T03:21:32;9.00;;;2.65;;
28176;SDS011;15461;41.652;9.378;2023-04-25T03:24:00;9.60;;;2.33;;
28176;SDS011;15461;41.652;9.378;2023-04-25T03:26:27;10.65;;;2.10;;
28176;SDS011;15461;41.652;9.378;2023-04-25T03:28:53;9.15;;;2.10;;
28176;SDS011;15461;41.652;9.378;2023-04-25T03:31:19;10.68;;;2.55;;
28176;SDS011;15461;41.652;9.378;2023-04-25T03:33:46;10.65;;;2.50;;
28176;SDS011;15461;41.652;9.378;2023-04-25T03:36:12;7.65;;;2.03;;
28176;SDS011;15461;41.652;9.378;2023-04-25T03:38:38;13.38;;;2.40;;
28176;SDS011;15461;41.652;9.378;2023-04-25T03:41:06;9.77;;;2.17;;
28176;SDS011;15461;41.652;9.378;2023-04-25T03:43:38;10.43;;;2.47;;
28176;SDS011;15461;41.652;9.378;2023-04-25T03:46:09;10.95;;;2.20;;
28176;SDS011;15461;41.652;9.378;2023-04-25T03:48:36;10.63;;;2.58;;
28176;SDS011;15461;41.652;9.378;2023-04-25T03:51:02;8.80;;;2.03;;
28176;SDS011;15461;41.652;9.378;2023-04-25T03:53:30;7.82;;;2.20;;
28176;SDS011;15461;41.652;9.378;2023-04-25T03:56:21;8.73;;;2.10;;
28176;SDS011;15461;41.652;9.378;2023-04-25T03:58:55;12.38;;;3.00;;
28176;SDS011;15461;41.652;9.378;2023-04-25T04:01:24;8.98;;;2.22;;
28176;SDS011;15461;41.652;9.378;2023-04-25T04:03:51;11.63;;;2.10;;
28176;SDS011;15461;41.652;9.378;2023-04-25T04:06:18;8.02;;;2.50;;
28176;SDS011;15461;41.652;9.378;2023-04-25T04:08:49;7.20;;;2.15;;
28176;SDS011;15461;41.652;9.378;2023-04-25T04:11:15;12.32;;;2.78;;
28176;SDS011;15461;41.652;9.378;2023-04-25T04:13:41;9.70;;;2.80;;
28176;SDS011;15461;41.652;9.378;2023-04-25T04:16:07;14.07;;;2.35;;
28176;SDS011;15461;41.652;9.378;2023-04-25T04:18:34;8.20;;;2.30;;
28176;SDS011;15461;41.652;9.378;2023-04-25T04:21:01;12.80;;;2.72;;
28176;SDS011;15461;41.652;9.378;2023-04-25T04:23:32;7.68;;;2.05;;
28176;SDS011;15461;41.652;9.378;2023-04-25T04:25:59;13.15;;;2.15;;
28176;SDS011;15461;41.652;9.378;2023-04-25T04:28:55;10.90;;;2.00;;
28176;SDS011;15461;41.652;9.378;2023-04-25T04:31:48;11.02;;;2.40;;
28176;SDS011;15461;41.652;9.378;2023-04-25T04:34:14;11.73;;;2.00;;
28176;SDS011;15461;41.652;9.378;2023-04-25T04:36:41;13.73;;;2.53;;
28176;SDS011;15461;41.652;9.378;2023-04-25T04:39:08;10.68;;;2.60;;
28176;SDS011;15461;41.652;9.378;2023-04-25T04:41:41;10.95;;;2.47;;
28176;SDS011;15461;41.652;9.378;2023-04-25T04:44:29;12.18;;;2.78;;
28176;SDS011;15461;41.652;9.378;2023-04-25T04:47:29;8.23;;;2.03;;
28176;SDS011;15461;41.652;9.378;2023-04-25T04:50:28;10.48;;;2.58;;
28176;SDS011;15461;41.652;9.378;2023-04-25T04:53:10;15.15;;;2.90;;
28176;SDS011;15461;41.652;9.378;2023-04-25T04:55:44;11.38;;;2.10;;
28176;SDS011;15461;41.652;9.378;2023-04-25T04:58:23;11.48;;;2.60;;
28176;SDS011;15461;41.652;9.378;2023-04-25T05:01:18;8.48;;;2.38;;
28176;SDS011;15461;41.652;9.378;2023-04-25T05:04:14;13.30;;;2.42;;
28176;SDS011;15461;41.652;9.378;2023-04-25T05:06:59;8.90;;;2.20;;
28176;SDS011;15461;41.652;9.378;2023-04-25T05:09:30;8.95;;;2.60;;
28176;SDS011;15461;41.652;9.378;2023-04-25T05:12:02;8.63;;;2.15;;
28176;SDS011;15461;41.652;9.378;2023-04-25T05:14:48;7.78;;;2.15;;
28176;SDS011;15461;41.652;9.378;2023-04-25T05:17:40;12.70;;;2.50;;
28176;SDS011;15461;41.652;9.378;2023-04-25T05:20:23;10.02;;;2.70;;
28176;SDS011;15461;41.652;9.378;2023-04-25T05:23:07;7.50;;;2.00;;
28176;SDS011;15461;41.652;9.378;2023-04-25T05:25:49;8.90;;;1.90;;
28176;SDS011;15461;41.652;9.378;2023-04-25T05:28:41;12.88;;;2.63;;
28176;SDS011;15461;41.652;9.378;2023-04-25T05:31:26;14.25;;;2.50;;
28176;SDS011;15461;41.652;9.378;2023-04-25T05:33:58;6.53;;;2.25;;
28176;SDS011;15461;41.652;9.378;2023-04-25T05:36:34;9.55;;;2.40;;
28176;SDS011;15461;41.652;9.378;2023-04-25T05:39:00;10.60;;;2.10;;
28176;SDS011;15461;41.652;9.378;2023-04-25T05:41:47;13.10;;;2.40;;
28176;SDS011;15461;41.652;9.378;2023-04-25T05:44:31;7.80;;;2.15;;
28176;SDS011;15461;41.652;9.378;2023-04-25T05:47:13;11.45;;;2.58;;
28176;SDS011;15461;41.652;9.378;2023-04-25T05:49:59;10.07;;;2.30;;
28176;SDS011;15461;41.652;9.378;2023-04-25T05:52:38;13.27;;;2.70;;
28176;SDS011;15461;41.652;9.378;2023-04-25T05:55:10;7.50;;;2.42;;
28176;SDS011;15461;41.652;9.378;2023-04-25T05:57:36;10.70;;;2.15;;
28176;SDS011;15461;41.652;9.378;2023-04-25T06:00:07;9.98;;;2.20;;
28176;SDS011;15461;41.652;9.378;2023-04-25T06:02:41;4.43;;;1.75;;
28176;SDS011;15461;41.652;9.378;2023-04-25T06:05:09;7.68;;;1.70;;
28176;SDS011;15461;41.652;9.378;2023-04-25T06:07:35;6.47;;;1.77;;
28176;SDS011;15461;41.652;9.378;2023-04-25T06:10:02;4.50;;;2.10;;
28176;SDS011;15461;41.652;9.378;2023-04-25T06:12:31;8.60;;;1.98;;
28176;SDS011;15461;41.652;9.378;2023-04-25T06:14:59;12.38;;;2.15;;
28176;SDS011;15461;41.652;9.378;2023-04-25T06:17:25;7.93;;;2.20;;
28176;SDS011;15461;41.652;9.378;2023-04-25T06:19:52;8.82;;;2.17;;
28176;SDS011;15461;41.652;9.378;2023-04-25T06:22:18;14.60;;;2.92;;
28176;SDS011;15461;41.652;9.378;2023-04-25T06:24:44;8.70;;;2.33;;
28176;SDS011;15461;41.652;9.378;2023-04-25T06:27:11;11.65;;;2.40;;
28176;SDS011;15461;41.652;9.378;2023-04-25T06:29:38;11.50;;;2.20;;
28176;SDS011;15461;41.652;9.378;2023-04-25T06:32:04;10.32;;;2.20;;
28176;SDS011;15461;41.652;9.378;2023-04-25T06:34:30;13.07;;;2.30;;
28176;SDS011;15461;41.652;9.378;2023-04-25T06:36:57;8.00;;;1.92;;
28176;SDS011;15461;41.652;9.378;2023-04-25T06:39:24;15.35;;;2.00;;
28176;SDS011;15461;41.652;9.378;2023-04-25T06:41:50;10.00;;;2.15;;
28176;SDS011;15461;41.652;9.378;2023-04-25T06:44:36;7.07;;;1.77;;
28176;SDS011;15461;41.652;9.378;2023-04-25T06:47:06;6.95;;;1.75;;
28176;SDS011;15461;41.652;9.378;2023-04-25T06:49:32;8.32;;;1.83;;
28176;SDS011;15461;41.652;9.378;2023-04-25T06:51:58;9.15;;;1.75;;
28176;SDS011;15461;41.652;9.378;2023-04-25T06:54:24;4.57;;;1.58;;
28176;SDS011;15461;41.652;9.378;2023-04-25T06:56:59;14.98;;;2.08;;
28176;SDS011;15461;41.652;9.378;2023-04-25T06:59:26;5.82;;;1.55;;
28176;SDS011;15461;41.652;9.378;2023-04-25T07:01:52;5.15;;;1.60;;
28176;SDS011;15461;41.652;9.378;2023-04-25T07:04:24;7.68;;;2.03;;
28176;SDS011;15461;41.652;9.378;2023-04-25T07:06:55;7.10;;;1.80;;
28176;SDS011;15461;41.652;9.378;2023-04-25T07:09:47;7.90;;;1.40;;
28176;SDS011;15461;41.652;9.378;2023-04-25T07:12:14;9.43;;;2.00;;
28176;SDS011;15461;41.652;9.378;2023-04-25T07:14:40;5.00;;;1.65;;
28176;SDS011;15461;41.652;9.378;2023-04-25T07:17:08;15.57;;;1.90;;
28176;SDS011;15461;41.652;9.378;2023-04-25T07:19:34;5.22;;;1.45;;
28176;SDS011;15461;41.652;9.378;2023-04-25T07:22:01;2.75;;;1.20;;
28176;SDS011;15461;41.652;9.378;2023-04-25T07:24:28;6.13;;;1.45;;
28176;SDS011;15461;41.652;9.378;2023-04-25T07:26:55;4.75;;;1.60;;
28176;SDS011;15461;41.652;9.378;2023-04-25T07:29:38;3.67;;;1.35;;
28176;SDS011;15461;41.652;9.378;2023-04-25T07:32:04;6.20;;;1.67;;
28176;SDS011;15461;41.652;9.378;2023-04-25T07:34:30;7.10;;;1.30;;
28176;SDS011;15461;41.652;9.378;2023-04-25T07:36:57;7.95;;;1.30;;
28176;SDS011;15461;41.652;9.378;2023-04-25T07:39:27;4.22;;;1.20;;
28176;SDS011;15461;41.652;9.378;2023-04-25T07:41:53;7.28;;;1.50;;
28176;SDS011;15461;41.652;9.378;2023-04-25T07:44:23;8.05;;;1.48;;
28176;SDS011;15461;41.652;9.378;2023-04-25T07:46:51;6.68;;;1.65;;
28176;SDS011;15461;41.652;9.378;2023-04-25T07:49:17;6.20;;;1.52;;
28176;SDS011;15461;41.652;9.378;2023-04-25T07:51:43;4.38;;;1.42;;
28176;SDS011;15461;41.652;9.378;2023-04-25T07:54:13;5.80;;;1.33;;
28176;SDS011;15461;41.652;9.378;2023-04-25T07:56:45;8.68;;;1.50;;
28176;SDS011;15461;41.652;9.378;2023-04-25T07:59:12;5.95;;;1.38;;
28176;SDS011;15461;41.652;9.378;2023-04-25T08:01:39;6.22;;;1.42;;
28176;SDS011;15461;41.652;9.378;2023-04-25T08:04:06;6.15;;;1.75;;
28176;SDS011;15461;41.652;9.378;2023-04-25T08:06:54;4.22;;;1.20;;
28176;SDS011;15461;41.652;9.378;2023-04-25T08:09:27;4.63;;;1.23;;
28176;SDS011;15461;41.652;9.378;2023-04-25T08:12:01;3.22;;;1.40;;
28176;SDS011;15461;41.652;9.378;2023-04-25T08:14:35;4.95;;;1.30;;
28176;SDS011;15461;41.652;9.378;2023-04-25T08:17:06;5.85;;;1.30;;
28176;SDS011;15461;41.652;9.378;2023-04-25T08:19:38;5.22;;;1.40;;
28176;SDS011;15461;41.652;9.378;2023-04-25T08:22:06;7.70;;;1.40;;
28176;SDS011;15461;41.652;9.378;2023-04-25T08:24:43;6.88;;;1.50;;
28176;SDS011;15461;41.652;9.378;2023-04-25T08:27:10;5.05;;;1.50;;
28176;SDS011;15461;41.652;9.378;2023-04-25T08:30:00;64.93;;;4.00;;
28176;SDS011;15461;41.652;9.378;2023-04-25T08:32:29;5.38;;;1.20;;
28176;SDS011;15461;41.652;9.378;2023-04-25T08:35:17;6.90;;;1.20;;
28176;SDS011;15461;41.652;9.378;2023-04-25T08:37:44;5.00;;;1.33;;
28176;SDS011;15461;41.652;9.378;2023-04-25T08:40:14;5.03;;;1.38;;
28176;SDS011;15461;41.652;9.378;2023-04-25T08:42:46;9.15;;;2.22;;
28176;SDS011;15461;41.652;9.378;2023-04-25T08:45:14;17.73;;;2.38;;
28176;SDS011;15461;41.652;9.378;2023-04-25T08:47:41;15.40;;;2.10;;
28176;SDS011;15461;41.652;9.378;2023-04-25T08:50:10;4.22;;;1.23;;
28176;SDS011;15461;41.652;9.378;2023-04-25T08:52:39;7.00;;;1.23;;
28176;SDS011;15461;41.652;9.378;2023-04-25T08:55:10;9.82;;;1.27;;
28176;SDS011;15461;41.652;9.378;2023-04-25T08:57:40;5.95;;;1.20;;
28176;SDS011;15461;41.652;9.378;2023-04-25T09:00:09;6.03;;;1.23;;
28176;SDS011;15461;41.652;9.378;2023-04-25T09:02:44;4.85;;;1.10;;
28176;SDS011;15461;41.652;9.378;2023-04-25T09:05:18;3.67;;;1.20;;
28176;SDS011;15461;41.652;9.378;2023-04-25T09:07:44;7.57;;;1.40;;
28176;SDS011;15461;41.652;9.378;2023-04-25T09:10:10;7.13;;;1.30;;
28176;SDS011;15461;41.652;9.378;2023-04-25T09:12:37;7.18;;;1.40;;
28176;SDS011;15461;41.652;9.378;2023-04-25T09:15:07;5.60;;;1.27;;
28176;SDS011;15461;41.652;9.378;2023-04-25T09:17:56;7.32;;;1.30;;
28176;SDS011;15461;41.652;9.378;2023-04-25T09:20:25;5.07;;;1.52;;
28176;SDS011;15461;41.652;9.378;2023-04-25T09:23:01;6.63;;;1.33;;
28176;SDS011;15461;41.652;9.378;2023-04-25T09:25:37;5.22;;;1.98;;
28176;SDS011;15461;41.652;9.378;2023-04-25T09:28:06;6.55;;;1.35;;
28176;SDS011;15461;41.652;9.378;2023-04-25T09:30:34;7.70;;;1.55;;
28176;SDS011;15461;41.652;9.378;2023-04-25T09:33:08;7.28;;;2.25;;
28176;SDS011;15461;41.652;9.378;2023-04-25T09:35:43;6.25;;;1.13;;
28176;SDS011;15461;41.652;9.378;2023-04-25T09:38:21;13.82;;;4.40;;
28176;SDS011;15461;41.652;9.378;2023-04-25T09:41:05;10.23;;;2.45;;
28176;SDS011;15461;41.652;9.378;2023-04-25T09:43:42;11.85;;;3.35;;
28176;SDS011;15461;41.652;9.378;2023-04-25T09:46:12;9.70;;;2.28;;
28176;SDS011;15461;41.652;9.378;2023-04-25T09:48:52;2.50;;;1.08;;
28176;SDS011;15461;41.652;9.378;2023-04-25T09:51:31;5.05;;;1.08;;
28176;SDS011;15461;41.652;9.378;2023-04-25T09:53:59;31.05;;;2.63;;
28176;SDS011;15461;41.652;9.378;2023-04-25T09:56:35;4.70;;;0.95;;
28176;SDS011;15461;41.652;9.378;2023-04-25T09:59:05;2.60;;;1.10;;
28176;SDS011;15461;41.652;9.378;2023-04-25T10:01:34;2.55;;;0.90;;
28176;SDS011;15461;41.652;9.378;2023-04-25T10:04:13;4.38;;;1.13;;
28176;SDS011;15461;41.652;9.378;2023-04-25T10:06:50;5.78;;;1.35;;
28176;SDS011;15461;41.652;9.378;2023-04-25T10:09:19;7.93;;;0.98;;
28176;SDS011;15461;41.652;9.378;2023-04-25T10:11:46;7.30;;;1.10;;
28176;SDS011;15461;41.652;9.378;2023-04-25T10:14:16;4.13;;;1.17;;
28176;SDS011;15461;41.652;9.378;2023-04-25T10:16:43;2.97;;;0.80;;
28176;SDS011;15461;41.652;9.378;2023-04-25T10:19:10;3.22;;;1.10;;
28176;SDS011;15461;41.652;9.378;2023-04-25T10:21:43;3.97;;;1.08;;
28176;SDS011;15461;41.652;9.378;2023-04-25T10:24:34;3.30;;;0.80;;
28176;SDS011;15461;41.652;9.378;2023-04-25T10:27:02;4.40;;;0.98;;
28176;SDS011;15461;41.652;9.378;2023-04-25T10:29:28;4.72;;;1.10;;
28176;SDS011;15461;41.652;9.378;2023-04-25T10:31:54;14.80;;;1.27;;
28176;SDS011;15461;41.652;9.378;2023-04-25T10:34:23;6.30;;;1.08;;
28176;SDS011;15461;41.652;9.378;2023-04-25T10:37:03;4.93;;;1.00;;
28176;SDS011;15461;41.652;9.378;2023-04-25T10:39:30;3.28;;;0.93;;
28176;SDS011;15461;41.652;9.378;2023-04-25T10:41:58;5.10;;;1.25;;
28176;SDS011;15461;41.652;9.378;2023-04-25T10:44:30;3.08;;;0.70;;
28176;SDS011;15461;41.652;9.378;2023-04-25T10:46:58;11.27;;;1.00;;
28176;SDS011;15461;41.652;9.378;2023-04-25T10:49:43;3.85;;;1.00;;
28176;SDS011;15461;41.652;9.378;2023-04-25T10:52:24;3.20;;;1.00;;
28176;SDS011;15461;41.652;9.378;2023-04-25T10:57:28;3.38;;;0.90;;
28176;SDS011;15461;41.652;9.378;2023-04-25T11:02:30;2.25;;;0.80;;
28176;SDS011;15461;41.652;9.378;2023-04-25T11:04:56;3.00;;;0.70;;
28176;SDS011;15461;41.652;9.378;2023-04-25T11:07:34;1.05;;;0.60;;
28176;SDS011;15461;41.652;9.378;2023-04-25T11:10:09;2.78;;;0.90;;
28176;SDS011;15461;41.652;9.378;2023-04-25T11:12:35;2.92;;;0.80;;
28176;SDS011;15461;41.652;9.378;2023-04-25T11:15:02;5.30;;;0.88;;
28176;SDS011;15461;41.652;9.378;2023-04-25T11:17:29;1.52;;;0.60;;
28176;SDS011;15461;41.652;9.378;2023-04-25T11:19:55;4.05;;;1.10;;
28176;SDS011;15461;41.652;9.378;2023-04-25T11:22:21;5.20;;;0.88;;
28176;SDS011;15461;41.652;9.378;2023-04-25T11:24:48;3.25;;;1.00;;
28176;SDS011;15461;41.652;9.378;2023-04-25T11:27:14;7.07;;;1.75;;
28176;SDS011;15461;41.652;9.378;2023-04-25T11:29:40;2.50;;;1.00;;
28176;SDS011;15461;41.652;9.378;2023-04-25T11:32:06;3.22;;;0.88;;
28176;SDS011;15461;41.652;9.378;2023-04-25T11:34:33;4.85;;;1.02;;
28176;SDS011;15461;41.652;9.378;2023-04-25T11:37:00;3.28;;;0.80;;
28176;SDS011;15461;41.652;9.378;2023-04-25T11:39:27;6.90;;;0.95;;
28176;SDS011;15461;41.652;9.378;2023-04-25T11:41:54;2.40;;;0.90;;
28176;SDS011;15461;41.652;9.378;2023-04-25T11:44:21;3.67;;;0.70;;
28176;SDS011;15461;41.652;9.378;2023-04-25T11:46:50;4.05;;;0.85;;
28176;SDS011;15461;41.652;9.378;2023-04-25T11:49:16;5.20;;;1.10;;
28176;SDS011;15461;41.652;9.378;2023-04-25T11:51:44;4.20;;;1.20;;
28176;SDS011;15461;41.652;9.378;2023-04-25T11:54:11;8.27;;;1.60;;
28176;SDS011;15461;41.652;9.378;2023-04-25T11:56:41;4.88;;;1.60;;
28176;SDS011;15461;41.652;9.378;2023-04-25T11:59:08;7.15;;;2.03;;
28176;SDS011;15461;41.652;9.378;2023-04-25T12:01:35;5.78;;;1.40;;
28176;SDS011;15461;41.652;9.378;2023-04-25T12:06:39;6.20;;;1.65;;
28176;SDS011;15461;41.652;9.378;2023-04-25T12:09:12;2.80;;;0.50;;
28176;SDS011;15461;41.652;9.378;2023-04-25T12:11:42;6.43;;;0.80;;
28176;SDS011;15461;41.652;9.378;2023-04-25T12:14:20;7.68;;;1.13;;
28176;SDS011;15461;41.652;9.378;2023-04-25T12:16:49;8.02;;;1.80;;
28176;SDS011;15461;41.652;9.378;2023-04-25T12:19:16;1.98;;;0.73;;
28176;SDS011;15461;41.652;9.378;2023-04-25T12:21:44;5.65;;;1.08;;
28176;SDS011;15461;41.652;9.378;2023-04-25T12:24:16;6.07;;;1.13;;
28176;SDS011;15461;41.652;9.378;2023-04-25T12:26:48;1.35;;;0.70;;
28176;SDS011;15461;41.652;9.378;2023-04-25T12:31:43;4.53;;;0.70;;
28176;SDS011;15461;41.652;9.378;2023-04-25T12:34:10;4.68;;;0.88;;
28176;SDS011;15461;41.652;9.378;2023-04-25T12:36:36;4.72;;;0.90;;
28176;SDS011;15461;41.652;9.378;2023-04-25T12:39:02;3.30;;;0.93;;
28176;SDS011;15461;41.652;9.378;2023-04-25T12:41:29;1.60;;;0.82;;
28176;SDS011;15461;41.652;9.378;2023-04-25T12:43:56;4.57;;;0.80;;
28176;SDS011;15461;41.652;9.378;2023-04-25T12:46:21;7.93;;;0.73;;
28176;SDS011;15461;41.652;9.378;2023-04-25T12:48:50;4.25;;;0.80;;
28176;SDS011;15461;41.652;9.378;2023-04-25T12:51:16;8.52;;;1.95;;
28176;SDS011;15461;41.652;9.378;2023-04-25T12:53:42;8.95;;;0.93;;
28176;SDS011;15461;41.652;9.378;2023-04-25T12:56:08;3.92;;;0.80;;
28176;SDS011;15461;41.652;9.378;2023-04-25T12:58:34;6.07;;;0.95;;
28176;SDS011;15461;41.652;9.378;2023-04-25T13:01:00;3.38;;;0.80;;
28176;SDS011;15461;41.652;9.378;2023-04-25T13:03:26;2.50;;;1.00;;
28176;SDS011;15461;41.652;9.378;2023-04-25T13:05:52;7.00;;;0.80;;
28176;SDS011;15461;41.652;9.378;2023-04-25T13:08:18;6.32;;;1.30;;
28176;SDS011;15461;41.652;9.378;2023-04-25T13:10:44;3.70;;;1.27;;
28176;SDS011;15461;41.652;9.378;2023-04-25T13:13:10;2.97;;;1.00;;
28176;SDS011;15461;41.652;9.378;2023-04-25T13:15:36;5.47;;;1.30;;
28176;SDS011;15461;41.652;9.378;2023-04-25T13:18:03;26.23;;;2.15;;
28176;SDS011;15461;41.652;9.378;2023-04-25T13:20:30;3.92;;;1.00;;
28176;SDS011;15461;41.652;9.378;2023-04-25T13:22:56;3.10;;;0.70;;
28176;SDS011;15461;41.652;9.378;2023-04-25T13:25:22;4.32;;;1.00;;
28176;SDS011;15461;41.652;9.378;2023-04-25T13:27:49;2.78;;;0.60;;
28176;SDS011;15461;41.652;9.378;2023-04-25T13:30:15;3.85;;;0.77;;
28176;SDS011;15461;41.652;9.378;2023-04-25T13:32:41;2.30;;;0.57;;
28176;SDS011;15461;41.652;9.378;2023-04-25T13:35:07;2.03;;;0.50;;
28176;SDS011;15461;41.652;9.378;2023-04-25T13:37:35;6.97;;;0.88;;
28176;SDS011;15461;41.652;9.378;2023-04-25T13:40:02;2.22;;;0.80;;
28176;SDS011;15461;41.652;9.378;2023-04-25T13:42:31;2.40;;;0.88;;
28176;SDS011;15461;41.652;9.378;2023-04-25T13:44:57;4.80;;;0.63;;
28176;SDS011;15461;41.652;9.378;2023-04-25T13:47:23;5.90;;;0.57;;
28176;SDS011;15461;41.652;9.378;2023-04-25T13:49:50;7.93;;;0.80;;
28176;SDS011;15461;41.652;9.378;2023-04-25T13:52:16;6.30;;;1.20;;
28176;SDS011;15461;41.652;9.378;2023-04-25T13:54:42;2.35;;;0.75;;
28176;SDS011;15461;41.652;9.378;2023-04-25T13:57:08;7.57;;;2.72;;
28176;SDS011;15461;41.652;9.378;2023-04-25T13:59:35;2.30;;;0.75;;
28176;SDS011;15461;41.652;9.378;2023-04-25T14:02:01;2.70;;;0.60;;
28176;SDS011;15461;41.652;9.378;2023-04-25T14:04:27;5.05;;;0.70;;
28176;SDS011;15461;41.652;9.378;2023-04-25T14:06:53;4.65;;;0.70;;
28176;SDS011;15461;41.652;9.378;2023-04-25T14:09:19;3.20;;;0.80;;
28176;SDS011;15461;41.652;9.378;2023-04-25T14:11:47;2.30;;;0.68;;
28176;SDS011;15461;41.652;9.378;2023-04-25T14:14:13;10.68;;;0.90;;
28176;SDS011;15461;41.652;9.378;2023-04-25T14:16:41;2.83;;;0.70;;
28176;SDS011;15461;41.652;9.378;2023-04-25T14:19:07;3.38;;;1.10;;
28176;SDS011;15461;41.652;9.378;2023-04-25T14:21:33;7.03;;;1.05;;
28176;SDS011;15461;41.652;9.378;2023-04-25T14:23:58;2.40;;;0.70;;
28176;SDS011;15461;41.652;9.378;2023-04-25T14:26:24;7.60;;;0.95;;
28176;SDS011;15461;41.652;9.378;2023-04-25T14:28:51;2.72;;;0.80;;
28176;SDS011;15461;41.652;9.378;2023-04-25T14:31:17;7.68;;;1.00;;
28176;SDS011;15461;41.652;9.378;2023-04-25T14:33:43;4.95;;;1.10;;
28176;SDS011;15461;41.652;9.378;2023-04-25T14:36:09;2.33;;;0.60;;
28176;SDS011;15461;41.652;9.378;2023-04-25T14:38:35;6.05;;;1.05;;
28176;SDS011;15461;41.652;9.378;2023-04-25T14:41:01;5.13;;;1.10;;
28176;SDS011;15461;41.652;9.378;2023-04-25T14:43:27;3.40;;;1.02;;
28176;SDS011;15461;41.652;9.378;2023-04-25T14:45:53;37.15;;;2.33;;
28176;SDS011;15461;41.652;9.378;2023-04-25T14:48:19;6.80;;;1.00;;
28176;SDS011;15461;41.652;9.378;2023-04-25T14:50:45;3.08;;;0.93;;
28176;SDS011;15461;41.652;9.378;2023-04-25T14:53:11;3.55;;;0.80;;
28176;SDS011;15461;41.652;9.378;2023-04-25T14:55:38;7.00;;;0.70;;
28176;SDS011;15461;41.652;9.378;2023-04-25T14:58:04;3.28;;;0.80;;
28176;SDS011;15461;41.652;9.378;2023-04-25T15:00:30;3.35;;;0.70;;
28176;SDS011;15461;41.652;9.378;2023-04-25T15:02:57;2.47;;;1.02;;
28176;SDS011;15461;41.652;9.378;2023-04-25T15:05:23;3.85;;;0.75;;
28176;SDS011;15461;41.652;9.378;2023-04-25T15:07:49;2.33;;;0.85;;
28176;SDS011;15461;41.652;9.378;2023-04-25T15:10:16;2.05;;;0.80;;